createdAt,value
2023-02-08T09:11:33.666Z,102313.34
2023-02-08T09:13:05.707Z,102310.47
2023-02-08T09:14:37.750Z,102315.09
2023-02-08T09:16:17.930Z,102312.97
2023-02-08T09:17:50.002Z,102306.81
2023-02-08T09:19:22.105Z,102305.91
2023-02-08T09:20:54.092Z,102320.16
2023-02-08T09:22:26.127Z,102312.66
2023-02-08T09:23:58.350Z,102306.91
2023-02-08T09:25:30.520Z,102300.50
2023-02-08T09:27:02.601Z,102312.09
2023-02-08T09:28:35.560Z,102311.53
2023-02-08T09:30:09.187Z,102307.50
2023-02-08T09:31:42.141Z,102308.59
2023-02-08T09:33:14.272Z,102307.50
2023-02-08T09:34:46.293Z,102304.41
2023-02-08T09:36:18.781Z,102308.50
2023-02-08T09:37:55.741Z,102309.34
2023-02-08T09:41:06.569Z,102297.88
2023-02-08T09:42:44.255Z,102302.03
2023-02-08T09:44:28.318Z,102302.53
2023-02-08T09:46:02.077Z,102309.50
2023-02-08T09:47:58.638Z,102310.28
2023-02-08T09:49:40.206Z,102299.69
2023-02-08T09:51:18.287Z,102305.88
2023-02-08T09:53:00.195Z,102299.34
2023-02-08T09:54:47.498Z,102297.78
2023-02-08T09:56:28.897Z,102304.44
2023-02-08T09:58:06.179Z,102290.50
2023-02-08T09:59:39.786Z,102302.66
2023-02-08T10:01:22.398Z,102303.94
2023-02-08T10:02:55.254Z,102294.63
2023-02-08T10:04:46.138Z,102295.84
2023-02-08T10:06:19.720Z,102293.50
2023-02-08T10:07:53.410Z,102288.44
2023-02-08T10:09:27.222Z,102287.56
2023-02-08T10:10:59.188Z,102288.25
2023-02-08T10:12:40.147Z,102281.59
2023-02-08T10:14:25.475Z,102291.56
2023-02-08T10:16:15.657Z,102290.69
2023-02-08T10:18:15.770Z,102284.13
2023-02-08T10:19:55.083Z,102283.16
2023-02-08T10:21:42.668Z,102285.00
2023-02-08T10:23:23.885Z,102289.28
2023-02-08T10:25:21.205Z,102292.13
2023-02-08T10:27:07.152Z,102287.91
2023-02-08T10:28:57.572Z,102293.22
2023-02-08T10:31:02.286Z,102287.63
2023-02-08T10:32:37.609Z,102284.31
2023-02-08T10:34:31.560Z,102283.16
2023-02-08T10:36:08.969Z,102279.50
2023-02-08T10:37:47.138Z,102289.22
2023-02-08T10:39:27.561Z,102285.97
2023-02-08T10:41:04.569Z,102282.84
2023-02-08T10:42:44.944Z,102276.97
2023-02-08T10:46:01.032Z,102279.72
2023-02-08T10:47:41.904Z,102278.34
2023-02-08T10:49:35.115Z,102286.19
2023-02-08T10:51:24.770Z,102292.34
2023-02-08T10:52:57.354Z,102278.81
2023-02-08T10:54:39.936Z,102287.56
2023-02-08T10:56:32.025Z,102285.88
2023-02-08T10:58:05.869Z,102285.97
2023-02-08T10:59:58.776Z,102281.75
2023-02-08T11:01:31.466Z,102289.00
2023-02-08T11:03:23.483Z,102287.94
2023-02-08T11:05:12.839Z,102291.28
2023-02-08T11:06:53.858Z,102288.53
2023-02-08T11:08:36.373Z,102291.78
2023-02-08T11:10:20.786Z,102298.81
2023-02-08T11:11:56.646Z,102295.09
2023-02-08T11:13:36.646Z,102290.78
2023-02-08T11:15:38.509Z,102289.34
2023-02-08T11:17:43.549Z,102291.78
2023-02-08T11:19:43.076Z,102292.94
2023-02-08T11:21:26.004Z,102292.94
2023-02-08T11:22:59.355Z,102293.22
2023-02-08T11:24:56.948Z,102295.31
2023-02-08T11:26:39.678Z,102298.81
2023-02-08T11:28:28.347Z,102282.66
2023-02-08T11:30:18.860Z,102288.53
2023-02-08T11:32:03.471Z,102287.06
2023-02-08T11:33:37.357Z,102292.16
2023-02-08T11:35:28.192Z,102296.06
2023-02-08T11:37:10.350Z,102301.16
2023-02-08T11:38:52.666Z,102298.25
2023-02-08T11:40:34.170Z,102291.75
2023-02-08T11:42:11.078Z,102285.66
2023-02-08T11:44:04.073Z,102289.78
2023-02-08T11:45:39.544Z,102292.25
2023-02-08T11:47:17.124Z,102292.34
2023-02-08T11:48:53.376Z,102282.22
2023-02-08T11:50:35.519Z,102290.94
2023-02-08T11:52:20.934Z,102289.19
2023-02-08T11:53:53.820Z,102289.47
2023-02-08T11:55:29.171Z,102289.59
2023-02-08T11:57:15.649Z,102287.94
2023-02-08T11:59:09.991Z,102288.13
2023-02-08T12:00:42.084Z,102287.44
2023-02-08T12:02:37.473Z,102292.94
2023-02-08T12:04:14.653Z,102292.84
2023-02-08T12:05:56.501Z,102284.22
2023-02-08T12:07:49.933Z,102287.41
2023-02-08T12:09:24.475Z,102281.28
2023-02-08T12:11:12.444Z,102285.78
2023-02-08T12:13:02.786Z,102290.88
2023-02-08T14:30:17.918Z,102347.84
2023-02-08T14:31:50.757Z,102349.75
2023-02-08T14:33:27.011Z,102347.22
2023-02-08T14:35:18.564Z,102358.28
2023-02-08T14:37:06.460Z,102357.09
2023-02-08T14:38:47.788Z,102351.22
2023-02-08T14:40:25.173Z,102352.72
2023-02-08T14:42:05.787Z,102355.50
2023-02-08T14:43:42.841Z,102358.97
2023-02-08T14:45:31.943Z,102360.59
2023-02-08T14:47:26.069Z,102358.06
2023-02-08T14:48:58.392Z,102361.97
2023-02-08T14:50:32.975Z,102363.22
2023-02-08T14:52:12.623Z,102362.34
2023-02-08T14:53:54.770Z,102370.22
2023-02-08T14:55:32.521Z,102359.28
2023-02-08T14:57:12.286Z,102362.59
2023-02-08T14:58:55.584Z,102362.53
2023-02-08T15:00:30.844Z,102369.16
2023-02-08T15:02:10.179Z,102361.44
2023-02-08T15:03:43.233Z,102361.78
2023-02-08T15:05:26.217Z,102374.91
2023-02-08T15:07:25.521Z,102372.38
2023-02-08T15:08:57.952Z,102371.56
2023-02-08T15:10:31.911Z,102374.13
2023-02-08T15:12:18.236Z,102370.66
2023-02-08T15:13:51.656Z,102364.59
2023-02-08T15:15:23.710Z,102370.59
2023-02-08T15:16:56.406Z,102371.22
2023-02-08T15:18:30.960Z,102364.84
2023-02-08T15:20:05.666Z,102369.19
2023-02-08T15:21:39.166Z,102370.63
2023-02-08T15:23:23.031Z,102379.56
2023-02-08T15:24:56.099Z,102373.94
2023-02-08T15:26:28.410Z,102374.41
2023-02-08T15:28:17.769Z,102382.13
2023-02-08T15:29:50.006Z,102382.50
2023-02-08T15:31:32.309Z,102382.38
2023-02-08T15:33:10.003Z,102375.75
2023-02-08T15:34:44.368Z,102382.19
2023-02-08T15:36:25.666Z,102380.31
2023-02-08T15:37:57.919Z,102382.06
2023-02-08T15:39:41.401Z,102386.47
2023-02-08T15:41:16.341Z,102380.78
2023-02-08T15:42:48.378Z,102383.31
2023-02-08T15:44:30.409Z,102382.31
2023-02-08T15:46:05.477Z,102391.13
2023-02-08T15:47:40.179Z,102385.97
2023-02-08T15:49:16.834Z,102390.38
2023-02-08T15:50:48.836Z,102384.97
2023-02-08T15:52:23.507Z,102385.97
2023-02-08T15:53:56.694Z,102395.59
2023-02-08T15:55:33.346Z,102387.19
2023-02-08T15:57:09.932Z,102389.72
2023-02-08T15:58:45.136Z,102397.16
2023-02-08T16:00:18.958Z,102396.84
2023-02-08T16:01:51.711Z,102394.28
2023-02-08T16:05:12.673Z,102399.47
2023-02-08T16:06:56.331Z,102400.38
2023-02-08T16:08:34.264Z,102395.94
2023-02-08T16:10:08.040Z,102401.50
2023-02-08T16:11:40.274Z,102396.16
2023-02-08T16:13:21.318Z,102402.13
2023-02-08T16:14:56.923Z,102392.13
2023-02-08T16:16:44.858Z,102403.47
2023-02-08T16:18:38.628Z,102405.25
2023-02-08T16:20:29.163Z,102407.81
2023-02-08T16:22:14.301Z,102408.56
2023-02-08T16:23:50.059Z,102406.69
2023-02-08T16:25:45.749Z,102408.38
2023-02-08T16:27:25.559Z,102406.38
2023-02-08T16:29:02.539Z,102414.88
2023-02-08T16:30:34.730Z,102412.78
2023-02-08T16:33:44.798Z,102413.66
2023-02-08T16:35:25.519Z,102417.09
2023-02-08T16:36:57.646Z,102420.06
2023-02-08T16:38:37.017Z,102419.41
2023-02-08T16:40:27.424Z,102419.19
2023-02-08T16:42:15.433Z,102414.00
2023-02-08T16:43:49.499Z,102416.97
2023-02-08T16:45:22.828Z,102416.97
2023-02-08T16:46:55.004Z,102426.03
2023-02-08T16:48:31.853Z,102420.06
2023-02-08T16:50:07.757Z,102416.66
2023-02-08T16:51:43.575Z,102420.06
2023-02-08T16:53:15.615Z,102421.84
2023-02-08T16:54:47.785Z,102423.59
2023-02-08T16:56:20.181Z,102423.72
2023-02-08T16:57:54.824Z,102429.91
2023-02-08T16:59:28.331Z,102427.38
2023-02-08T17:01:00.533Z,102426.91
2023-02-08T17:02:32.816Z,102433.44
2023-02-08T17:04:05.265Z,102432.66
2023-02-08T17:05:39.175Z,102432.09
2023-02-08T17:07:18.053Z,102428.13
2023-02-08T17:08:50.114Z,102432.22
2023-02-08T17:10:22.095Z,102432.22
2023-02-08T17:11:54.291Z,102437.44
2023-02-08T17:13:29.611Z,102433.09
2023-02-08T17:15:01.622Z,102432.34
2023-02-08T17:16:35.461Z,102427.47
2023-02-08T17:18:07.474Z,102420.63
2023-02-08T17:19:39.545Z,102429.13
2023-02-08T17:21:11.566Z,102427.47
2023-02-08T17:22:43.702Z,102418.28
2023-02-08T17:24:18.068Z,102426.34
2023-02-08T17:25:50.090Z,102425.59
2023-02-08T17:27:22.513Z,102428.47
2023-02-08T17:28:59.379Z,102430.31
2023-02-08T17:30:31.445Z,102434.63
2023-02-08T17:32:03.461Z,102432.88
2023-02-08T17:33:37.442Z,102436.41
2023-02-08T17:35:10.129Z,102439.94
2023-02-08T17:36:42.833Z,102441.69
2023-02-08T17:38:15.737Z,102447.69
2023-02-08T17:39:47.733Z,102449.56
2023-02-08T17:41:21.227Z,102446.13
2023-02-08T17:42:54.311Z,102450.31
2023-02-08T17:44:26.589Z,102455.41
2023-02-08T17:45:58.642Z,102448.75
2023-02-08T17:47:30.790Z,102447.22
2023-02-08T17:49:04.092Z,102442.38
2023-02-08T17:50:36.985Z,102446.78
2023-02-08T17:53:44.120Z,102423.25
2023-02-08T17:55:17.170Z,102451.00
2023-02-08T17:56:49.487Z,102444.16
2023-02-08T17:58:21.549Z,102440.06
2023-02-08T17:59:53.625Z,102445.16
2023-02-08T18:01:27.178Z,102448.75
2023-02-08T18:03:00.840Z,102442.25
2023-02-08T18:04:33.373Z,102454.31
2023-02-08T18:06:06.482Z,102453.41
2023-02-08T18:07:40.101Z,102455.75
2023-02-08T18:09:12.290Z,102450.78
2023-02-08T18:10:44.587Z,102451.66
2023-02-08T18:12:16.893Z,102458.63
2023-02-08T18:13:50.620Z,102451.00
2023-02-08T18:15:23.103Z,102455.09
2023-02-08T18:16:57.908Z,102463.59
2023-02-08T18:18:29.997Z,102458.41
2023-02-08T18:20:02.138Z,102464.38
2023-02-08T18:21:34.356Z,102455.88
2023-02-08T18:23:06.514Z,102463.50
2023-02-08T18:24:38.513Z,102469.34
2023-02-08T18:26:20.383Z,102456.31
2023-02-08T18:27:52.540Z,102466.69
2023-02-08T18:29:25.316Z,102463.38
2023-02-08T18:31:04.897Z,102463.59
2023-02-08T18:32:37.231Z,102468.22
2023-02-08T18:34:10.036Z,102464.13
2023-02-08T18:35:48.572Z,102462.50
2023-02-08T18:37:21.591Z,102466.47
2023-02-08T18:38:55.982Z,102469.91
2023-02-08T18:40:28.008Z,102473.09
2023-02-08T18:42:00.126Z,102470.38
2023-02-08T18:43:32.143Z,102476.19
2023-02-08T18:45:05.658Z,102471.13
2023-02-08T18:46:37.530Z,102476.53
2023-02-08T18:48:09.676Z,102470.25
2023-02-08T18:49:41.770Z,102468.13
2023-02-08T18:51:16.589Z,102471.34
2023-02-08T18:52:48.554Z,102471.09
2023-02-08T18:54:20.576Z,102469.22
2023-02-08T18:55:57.044Z,102476.19
2023-02-08T18:57:29.188Z,102479.53
2023-02-08T18:59:01.398Z,102479.53
2023-02-08T19:00:33.522Z,102470.13
2023-02-08T19:02:07.448Z,102480.19
2023-02-08T19:03:39.946Z,102481.94
2023-02-08T19:05:12.220Z,102475.84
2023-02-08T19:06:44.266Z,102476.75
2023-02-08T19:08:20.943Z,102485.28
2023-02-08T19:09:54.564Z,102482.59
2023-02-08T19:11:27.802Z,102484.06
2023-02-08T19:12:59.839Z,102485.34
2023-02-08T19:14:32.089Z,102485.34
2023-02-08T19:16:06.601Z,102483.81
2023-02-08T19:17:38.604Z,102486.34
2023-02-08T19:19:10.909Z,102486.47
2023-02-08T19:20:43.068Z,102489.00
2023-02-08T19:22:15.141Z,102489.91
2023-02-08T19:23:48.652Z,102492.56
2023-02-08T19:27:04.323Z,102485.28
2023-02-08T19:28:36.488Z,102487.16
2023-02-08T19:30:09.222Z,102481.28
2023-02-08T19:31:42.383Z,102483.19
2023-02-08T19:33:14.874Z,102484.72
2023-02-08T19:34:46.897Z,102485.34
2023-02-08T19:36:24.294Z,102478.84
2023-02-08T19:37:56.395Z,102480.94
2023-02-08T19:39:28.666Z,102486.81
2023-02-08T19:41:00.710Z,102487.56
2023-02-08T19:42:32.774Z,102489.25
2023-02-08T19:44:06.522Z,102490.56
2023-02-08T19:45:44.957Z,102485.72
2023-02-08T19:47:17.199Z,102487.25
2023-02-08T19:48:53.417Z,102496.09
2023-02-08T19:50:25.516Z,102494.22
2023-02-08T19:51:57.692Z,102488.25
2023-02-08T19:53:30.317Z,102487.47
2023-02-08T19:56:36.306Z,102477.19
2023-02-08T19:58:08.311Z,102484.16
2023-02-08T19:59:40.490Z,102480.72
2023-02-08T20:01:21.451Z,102471.78
2023-02-08T20:02:53.557Z,102481.50
2023-02-08T20:04:25.546Z,102482.63
2023-02-08T20:05:58.261Z,102486.81
2023-02-08T20:07:30.326Z,102487.72
2023-02-08T20:09:02.551Z,102478.41
2023-02-08T20:10:46.482Z,102475.53
2023-02-08T20:12:20.053Z,102482.50
2023-02-08T20:13:53.495Z,102488.16
2023-02-08T20:15:25.506Z,102497.31
2023-02-08T20:16:57.952Z,102489.69
2023-02-08T20:18:30.022Z,102499.09
2023-02-08T20:20:02.113Z,102492.78
2023-02-08T20:21:39.912Z,102495.09
2023-02-08T20:23:22.516Z,102486.72
2023-02-08T20:24:54.877Z,102491.81
2023-02-08T20:26:28.795Z,102493.66
2023-02-08T20:28:00.982Z,102495.88
2023-02-08T20:29:33.039Z,102484.81
2023-02-08T20:31:29.693Z,102482.84
2023-02-08T20:33:01.726Z,102479.97
2023-02-08T20:34:33.879Z,102484.16
2023-02-08T20:36:14.521Z,102478.31
2023-02-08T20:37:46.900Z,102471.03
2023-02-08T20:39:19.712Z,102477.19
2023-02-08T20:40:51.669Z,102480.50
2023-02-08T20:42:23.698Z,102478.72
2023-02-08T20:43:56.254Z,102481.38
2023-02-08T20:45:28.267Z,102481.38
2023-02-08T20:47:00.281Z,102485.59
2023-02-08T20:48:32.358Z,102478.72
2023-02-08T20:50:17.826Z,102486.47
2023-02-08T20:51:52.832Z,102484.16
2023-02-08T20:53:24.912Z,102480.09
2023-02-08T20:54:57.119Z,102479.28
2023-02-08T20:56:34.657Z,102481.28
2023-02-08T20:58:07.590Z,102481.28
2023-02-08T20:59:39.811Z,102481.97
2023-02-08T21:01:14.630Z,102471.91
2023-02-08T21:02:47.154Z,102485.50
2023-02-08T21:04:23.710Z,102484.72
2023-02-08T21:05:56.013Z,102471.13
2023-02-08T21:07:28.049Z,102476.19
2023-02-08T21:09:04.200Z,102475.66
2023-02-08T21:10:37.518Z,102475.66
2023-02-08T21:12:09.679Z,102478.88
2023-02-08T21:13:41.768Z,102482.16
2023-02-08T21:15:13.777Z,102477.75
2023-02-08T21:16:51.361Z,102475.31
2023-02-08T21:18:23.504Z,102480.16
2023-02-08T21:19:55.509Z,102481.72
2023-02-08T21:21:28.653Z,102472.34
2023-02-08T21:23:00.722Z,102478.97
2023-02-08T21:24:33.131Z,102483.06
2023-02-08T21:26:07.496Z,102474.44
2023-02-08T21:27:39.564Z,102470.78
2023-02-08T21:29:11.718Z,102470.03
2023-02-08T21:30:44.917Z,102480.19
2023-02-08T21:32:17.577Z,102480.06
2023-02-08T21:33:50.462Z,102475.75
2023-02-08T21:35:22.449Z,102476.66
2023-02-08T21:36:54.483Z,102479.94
2023-02-08T21:38:26.580Z,102479.94
2023-02-08T21:39:58.752Z,102486.56
2023-02-08T21:41:33.372Z,102490.13
2023-02-08T21:43:07.772Z,102489.91
2023-02-08T21:44:39.969Z,102489.66
2023-02-08T21:46:15.539Z,102495.75
2023-02-08T21:47:47.665Z,102490.31
2023-02-08T21:49:38.375Z,102498.94
2023-02-08T21:51:29.230Z,102491.31
2023-02-08T21:54:46.704Z,102492.31
2023-02-08T21:56:19.264Z,102489.53
2023-02-08T21:57:51.439Z,102494.53
2023-02-08T21:59:23.428Z,102493.41
2023-02-08T22:00:55.490Z,102493.28
2023-02-08T22:02:29.424Z,102493.41
2023-02-08T22:04:01.394Z,102493.09
2023-02-08T22:05:33.426Z,102493.84
2023-02-08T22:07:05.472Z,102496.28
2023-02-08T22:08:37.745Z,102501.38
2023-02-08T22:10:10.855Z,102493.84
2023-02-08T22:11:43.197Z,102498.72
2023-02-08T22:13:15.175Z,102495.84
2023-02-08T22:14:48.039Z,102498.13
2023-02-08T22:16:20.109Z,102497.13
2023-02-08T22:17:57.133Z,102496.47
2023-02-08T22:19:29.202Z,102500.47
2023-02-08T22:21:04.424Z,102496.38
2023-02-08T22:25:57.698Z,102491.78
2023-02-08T22:27:29.934Z,102489.78
2023-02-08T22:29:02.041Z,102491.13
2023-02-08T22:30:34.330Z,102493.19
2023-02-08T22:32:07.756Z,102494.47
2023-02-08T22:33:39.872Z,102500.88
2023-02-08T22:35:16.027Z,102496.34
2023-02-08T22:36:48.102Z,102495.53
2023-02-08T22:38:20.193Z,102488.97
2023-02-08T22:39:52.181Z,102490.38
2023-02-08T22:41:24.332Z,102499.53
2023-02-08T22:42:56.328Z,102502.59
2023-02-08T22:44:28.394Z,102503.25
2023-02-08T22:46:01.101Z,102500.72
2023-02-08T22:47:33.969Z,102504.88
2023-02-08T22:49:06.176Z,102496.81
2023-02-08T22:50:38.840Z,102493.91
2023-02-08T22:52:11.246Z,102499.63
2023-02-08T22:53:44.000Z,102493.19
2023-02-08T22:55:15.996Z,102488.50
2023-02-08T22:56:47.970Z,102494.91
2023-02-08T22:58:20.424Z,102495.28
2023-02-08T22:59:52.469Z,102488.72
2023-02-08T23:01:24.764Z,102490.91
2023-02-08T23:02:56.865Z,102492.44
2023-02-08T23:04:29.145Z,102489.91
2023-02-08T23:06:01.194Z,102493.69
2023-02-08T23:07:33.424Z,102488.69
2023-02-08T23:09:06.309Z,102488.81
2023-02-08T23:10:38.717Z,102496.56
2023-02-08T23:12:10.743Z,102500.13
2023-02-08T23:13:42.921Z,102500.75
2023-02-08T23:15:15.059Z,102495.06
2023-02-08T23:16:47.072Z,102497.34
2023-02-08T23:18:19.080Z,102490.00
2023-02-08T23:19:52.950Z,102488.88
2023-02-08T23:21:24.916Z,102500.78
2023-02-08T23:22:56.963Z,102498.09
2023-02-08T23:24:29.313Z,102495.47
2023-02-08T23:26:07.968Z,102503.44
2023-02-08T23:27:39.917Z,102504.69
2023-02-08T23:29:11.868Z,102501.41
2023-02-08T23:30:44.307Z,102502.28
2023-02-08T23:32:16.583Z,102499.75
2023-02-08T23:33:51.670Z,102495.19
2023-02-08T23:35:23.689Z,102500.78
2023-02-08T23:36:55.716Z,102499.13
2023-02-08T23:38:27.855Z,102503.94
2023-02-08T23:40:00.403Z,102499.38
2023-02-08T23:41:33.022Z,102506.47
2023-02-08T23:43:05.049Z,102499.91
2023-02-08T23:44:37.160Z,102495.34
2023-02-08T23:46:11.420Z,102505.09
2023-02-08T23:47:43.457Z,102491.66
2023-02-08T23:49:15.461Z,102495.44
2023-02-08T23:50:57.357Z,102500.47
2023-02-08T23:52:29.593Z,102496.19
2023-02-08T23:54:01.665Z,102504.16
2023-02-08T23:55:33.778Z,102495.03
2023-02-08T23:57:06.054Z,102496.81
2023-02-08T23:58:38.286Z,102494.03
